createdAt,value
2019-06-08T00:01:31.032Z,96598.75
2019-06-08T00:04:00.773Z,96582.75
2019-06-08T00:06:30.471Z,96592.16
2019-06-08T00:09:00.227Z,96591.20
2019-06-08T00:11:29.918Z,96597.53
2019-06-08T00:13:59.595Z,96591.78
2019-06-08T00:16:29.410Z,96588.25
2019-06-08T00:18:59.167Z,96587.26
2019-06-08T00:21:28.940Z,96586.68
2019-06-08T00:23:58.746Z,96579.91
2019-06-08T00:26:28.465Z,96592.59
2019-06-08T00:28:58.135Z,96591.00
2019-06-08T00:31:27.832Z,96588.98
2019-06-08T00:33:57.492Z,96585.06
2019-06-08T00:36:27.191Z,96590.26
2019-06-08T00:38:56.867Z,96579.76
2019-06-08T00:41:26.634Z,96584.07
2019-06-08T00:43:56.541Z,96576.92
2019-06-08T00:46:26.297Z,96581.38
2019-06-08T00:48:58.761Z,96575.80
2019-06-08T00:51:29.689Z,96574.23
2019-06-08T00:53:59.888Z,96578.91
2019-06-08T00:56:31.133Z,96568.48
2019-06-08T00:59:02.397Z,96573.86
2019-06-08T01:01:32.162Z,96572.97
2019-06-08T01:04:01.761Z,96575.08
2019-06-08T01:06:31.492Z,96569.69
2019-06-08T01:09:01.400Z,96581.45
2019-06-08T01:11:31.470Z,96573.75
2019-06-08T01:14:01.449Z,96568.92
2019-06-08T01:16:31.184Z,96578.56
2019-06-08T01:19:00.880Z,96575.73
2019-06-08T01:21:30.817Z,96567.58
2019-06-08T01:24:02.652Z,96580.20
2019-06-08T01:26:32.423Z,96572.96
2019-06-08T01:29:03.392Z,96582.46
2019-06-08T01:31:33.425Z,96580.78
2019-06-08T01:34:03.305Z,96575.58
2019-06-08T01:36:33.103Z,96574.96
2019-06-08T01:39:02.701Z,96572.41
2019-06-08T01:41:34.053Z,96573.39
2019-06-08T01:44:04.289Z,96574.80
2019-06-08T01:46:34.125Z,96579.22
2019-06-08T01:49:03.995Z,96583.88
2019-06-08T01:51:33.848Z,96581.27
2019-06-08T01:54:03.828Z,96581.55
2019-06-08T01:56:37.294Z,96584.39
2019-06-08T01:59:06.931Z,96587.63
2019-06-08T02:01:38.465Z,96587.15
2019-06-08T02:04:08.408Z,96591.89
2019-06-08T02:06:38.442Z,96584.42
2019-06-08T02:09:10.717Z,96586.50
2019-06-08T02:11:40.653Z,96597.94
2019-06-08T02:14:10.253Z,96590.75
2019-06-08T02:16:40.217Z,96591.42
2019-06-08T02:19:09.955Z,96593.44
2019-06-08T02:21:40.087Z,96597.40
2019-06-08T02:24:10.592Z,96595.89
2019-06-08T02:26:41.902Z,96600.92
2019-06-08T02:29:11.669Z,96602.00
2019-06-08T02:31:42.036Z,96602.22
2019-06-08T02:34:11.928Z,96607.86
2019-06-08T02:36:41.703Z,96600.77
2019-06-08T02:39:11.511Z,96607.70
2019-06-08T02:41:41.274Z,96606.16
2019-06-08T02:44:11.411Z,96609.28
2019-06-08T02:46:41.301Z,96618.25
2019-06-08T02:49:10.984Z,96617.97
2019-06-08T02:51:41.311Z,96621.72
2019-06-08T02:54:12.825Z,96626.48
2019-06-08T02:56:44.357Z,96625.59
2019-06-08T02:59:17.292Z,96627.00
2019-06-08T03:01:50.646Z,96637.30
2019-06-08T03:04:22.386Z,96650.92
2019-06-08T03:06:53.692Z,96651.89
2019-06-08T03:09:26.503Z,96661.95
2019-06-08T03:11:57.246Z,96662.17
2019-06-08T03:14:28.653Z,96674.16
2019-06-08T03:16:59.818Z,96677.18
2019-06-08T03:19:31.234Z,96681.72
2019-06-08T03:22:01.185Z,96686.05
2019-06-08T03:24:34.348Z,96684.05
2019-06-08T03:27:03.873Z,96689.45
2019-06-08T03:29:34.917Z,96699.08
2019-06-08T03:32:05.153Z,96695.78
2019-06-08T03:34:43.054Z,96703.69
2019-06-08T03:37:08.031Z,96711.26
2019-06-08T03:39:38.963Z,96712.41
2019-06-08T03:42:08.779Z,96717.48
2019-06-08T03:44:40.380Z,96719.88
2019-06-08T03:47:10.237Z,96718.88
2019-06-08T03:49:50.613Z,96731.94
2019-06-08T03:52:11.666Z,96731.37
2019-06-08T03:54:43.062Z,96729.83
2019-06-08T03:57:13.188Z,96732.43
2019-06-08T03:59:45.153Z,96736.33
2019-06-08T04:02:14.473Z,96734.54
2019-06-08T04:04:46.095Z,96735.75
2019-06-08T04:07:15.905Z,96739.13
2019-06-08T04:09:46.012Z,96742.16
2019-06-08T04:12:20.472Z,96741.64
2019-06-08T04:14:50.543Z,96742.59
2019-06-08T04:17:22.980Z,96750.72
2019-06-08T04:20:09.746Z,96751.09
2019-06-08T04:22:24.163Z,96757.47
2019-06-08T04:24:55.603Z,96762.70
2019-06-08T04:27:25.217Z,96768.98
2019-06-08T04:29:55.348Z,96770.41
2019-06-08T04:32:25.176Z,96773.56
2019-06-08T04:34:55.010Z,96770.61
2019-06-08T04:37:24.754Z,96780.39
2019-06-08T04:39:54.368Z,96783.52
2019-06-08T04:42:23.999Z,96792.67
2019-06-08T04:44:53.766Z,96798.09
2019-06-08T04:47:23.530Z,96803.41
2019-06-08T04:49:53.430Z,96806.39
2019-06-08T04:52:23.283Z,96811.44
2019-06-08T04:54:53.055Z,96807.55
2019-06-08T04:57:22.660Z,96814.07
2019-06-08T04:59:52.373Z,96812.55
2019-06-08T05:02:22.186Z,96818.45
2019-06-08T05:04:51.965Z,96817.14
2019-06-08T05:07:21.743Z,96821.02
2019-06-08T05:09:51.519Z,96822.41
2019-06-08T05:12:21.269Z,96827.73
2019-06-08T05:14:51.038Z,96836.06
2019-06-08T05:17:20.783Z,96836.73
2019-06-08T05:19:51.950Z,96839.61
2019-06-08T05:22:24.823Z,96844.63
2019-06-08T05:24:54.613Z,96843.98
2019-06-08T05:27:25.797Z,96850.20
2019-06-08T05:29:55.493Z,96855.34
2019-06-08T05:32:26.730Z,96855.68
2019-06-08T05:35:00.478Z,96858.75
2019-06-08T05:37:29.529Z,96862.33
2019-06-08T05:39:59.139Z,96867.11
2019-06-08T05:42:30.404Z,96869.04
2019-06-08T05:45:00.127Z,96868.86
2019-06-08T05:47:29.814Z,96867.84
2019-06-08T05:49:59.490Z,96881.89
2019-06-08T05:52:29.173Z,96884.13
2019-06-08T05:54:58.848Z,96885.54
2019-06-08T05:57:28.542Z,96890.43
2019-06-08T05:59:58.281Z,96888.40
2019-06-08T06:02:27.909Z,96893.27
2019-06-08T06:04:57.904Z,96892.99
2019-06-08T06:07:27.960Z,96894.17
2019-06-08T06:09:57.752Z,96899.92
2019-06-08T06:12:27.585Z,96897.11
2019-06-08T06:14:57.302Z,96897.81
2019-06-08T06:17:27.036Z,96906.26
2019-06-08T06:19:56.882Z,96904.65
2019-06-08T06:22:26.716Z,96901.02
2019-06-08T06:24:56.353Z,96904.88
2019-06-08T06:27:26.047Z,96912.45
2019-06-08T06:29:55.648Z,96908.03
2019-06-08T06:32:25.412Z,96920.54
2019-06-08T06:34:55.255Z,96914.59
2019-06-08T06:37:25.098Z,96914.05
2019-06-08T06:39:54.865Z,96920.73
2019-06-08T06:42:25.268Z,96925.33
2019-06-08T06:44:55.142Z,96924.42
2019-06-08T06:47:25.045Z,96925.05
2019-06-08T06:49:55.015Z,96930.77
2019-06-08T06:52:24.828Z,96931.67
2019-06-08T06:54:54.425Z,96935.67
2019-06-08T06:57:24.349Z,96941.73
2019-06-08T06:59:54.394Z,96937.91
2019-06-08T07:02:24.361Z,96940.42
2019-06-08T07:04:54.387Z,96939.14
2019-06-08T07:07:24.226Z,96947.34
2019-06-08T07:09:54.954Z,96949.30
2019-06-08T07:12:26.289Z,96950.14
2019-06-08T07:14:57.917Z,96952.50
2019-06-08T07:17:27.936Z,96953.98
2019-06-08T07:19:58.922Z,96949.98
2019-06-08T07:22:28.793Z,96954.05
2019-06-08T07:24:58.700Z,96951.91
2019-06-08T07:27:28.427Z,96955.66
2019-06-08T07:29:59.020Z,96949.52
2019-06-08T07:32:28.869Z,96944.70
2019-06-08T07:34:59.383Z,96948.05
2019-06-08T07:37:29.177Z,96956.08
2019-06-08T07:40:00.160Z,96950.34
2019-06-08T07:42:30.184Z,96951.31
2019-06-08T07:45:00.510Z,96953.34
2019-06-08T07:47:30.241Z,96957.39
2019-06-08T07:50:00.169Z,96955.78
2019-06-08T07:52:29.987Z,96955.78
2019-06-08T07:54:59.657Z,96953.83
2019-06-08T07:57:29.506Z,96960.02
2019-06-08T08:00:00.180Z,96958.41
2019-06-08T08:02:32.773Z,96956.47
2019-06-08T08:05:02.534Z,96961.92
2019-06-08T08:07:32.307Z,96960.14
2019-06-08T08:10:02.046Z,96956.67
2019-06-08T08:12:31.921Z,96963.66
2019-06-08T08:15:01.543Z,96965.47
2019-06-08T08:17:34.254Z,96963.38
2019-06-08T08:20:02.951Z,96962.91
2019-06-08T08:22:32.622Z,96973.90
2019-06-08T08:25:05.081Z,96965.02
2019-06-08T08:27:37.398Z,96976.31
2019-06-08T08:30:10.555Z,96973.47
2019-06-08T08:32:40.387Z,96977.00
2019-06-08T08:35:10.299Z,96983.20
2019-06-08T08:37:40.121Z,96989.20
2019-06-08T08:40:10.218Z,96983.41
2019-06-08T08:42:40.045Z,96984.23
2019-06-08T08:45:10.655Z,96983.41
2019-06-08T08:47:40.280Z,96987.66
2019-06-08T08:50:10.788Z,96995.12
2019-06-08T08:52:41.085Z,96990.73
2019-06-08T08:55:11.876Z,96994.19
2019-06-08T08:57:41.836Z,96998.09
2019-06-08T09:00:12.850Z,97003.27
2019-06-08T09:02:42.612Z,97001.45
2019-06-08T09:05:14.098Z,97002.94
2019-06-08T09:07:48.320Z,97001.83
2019-06-08T09:10:18.548Z,97004.41
2019-06-08T09:12:48.675Z,97005.91
2019-06-08T09:15:19.346Z,97004.22
2019-06-08T09:17:49.643Z,97010.05
2019-06-08T09:20:21.265Z,97011.61
2019-06-08T09:22:59.135Z,97018.60
2019-06-08T09:25:22.452Z,97015.97
2019-06-08T09:27:54.706Z,97028.98
2019-06-08T09:30:27.507Z,97032.05
2019-06-08T09:33:00.215Z,97034.38
2019-06-08T09:35:28.167Z,97034.16
2019-06-08T09:38:01.204Z,97037.16
2019-06-08T09:40:32.645Z,97032.91
2019-06-08T09:43:06.088Z,97036.91
2019-06-08T09:45:31.959Z,97043.35
2019-06-08T09:48:05.512Z,97044.98
2019-06-08T09:50:34.547Z,97045.92
2019-06-08T09:53:22.366Z,97049.18
2019-06-08T09:55:38.640Z,97043.85
2019-06-08T09:58:11.670Z,97039.83
2019-06-08T10:00:40.341Z,97041.98
2019-06-08T10:03:09.996Z,97044.82
2019-06-08T10:05:39.728Z,97048.55
2019-06-08T10:08:09.798Z,97057.22
2019-06-08T10:10:39.664Z,97057.60
2019-06-08T10:13:09.904Z,97064.86
2019-06-08T10:15:39.860Z,97062.62
2019-06-08T10:18:09.550Z,97065.22
2019-06-08T10:20:40.663Z,97065.80
2019-06-08T10:23:27.317Z,97070.50
2019-06-08T10:25:41.870Z,97067.37
2019-06-08T10:28:15.905Z,97063.09
2019-06-08T10:30:42.866Z,97057.77
2019-06-08T10:33:12.496Z,97068.22
2019-06-08T10:35:42.112Z,97067.20
2019-06-08T10:38:12.188Z,97074.87
2019-06-08T10:41:06.347Z,97069.42
2019-06-08T10:43:32.051Z,97071.34
2019-06-08T10:46:08.482Z,97072.55
2019-06-08T10:48:33.074Z,97077.23
2019-06-08T10:51:05.253Z,97076.08
2019-06-08T10:53:48.234Z,97083.06
2019-06-08T10:56:10.331Z,97083.78
2019-06-08T10:58:38.561Z,97085.59
2019-06-08T11:01:11.143Z,97085.16
2019-06-08T11:03:39.886Z,97083.13
2019-06-08T11:06:12.967Z,97077.62
2019-06-08T11:08:41.053Z,97087.41
2019-06-08T11:11:11.923Z,97084.28
2019-06-08T11:13:44.732Z,97078.22
2019-06-08T11:16:14.564Z,97081.37
2019-06-08T11:18:44.304Z,97082.74
2019-06-08T11:21:14.153Z,97078.62
2019-06-08T11:23:43.863Z,97072.97
2019-06-08T11:26:19.836Z,97076.29
2019-06-08T11:28:45.072Z,97083.33
2019-06-08T11:31:16.273Z,97079.91
2019-06-08T11:33:48.989Z,97076.09
2019-06-08T11:36:19.040Z,97079.13
2019-06-08T11:38:48.920Z,97085.33
2019-06-08T11:41:22.892Z,97089.14
2019-06-08T11:43:52.708Z,97080.06
2019-06-08T11:46:22.400Z,97087.27
2019-06-08T11:48:52.113Z,97077.58
2019-06-08T11:51:21.734Z,97076.77
2019-06-08T11:53:52.596Z,97088.00
2019-06-08T11:56:23.508Z,97080.73
2019-06-08T11:58:57.947Z,97083.53
2019-06-08T12:01:27.801Z,97086.28
2019-06-08T12:03:58.019Z,97080.52
2019-06-08T12:06:27.774Z,97079.41
2019-06-08T12:09:00.133Z,97078.09
2019-06-08T12:11:29.218Z,97080.11
2019-06-08T12:13:58.979Z,97085.14
2019-06-08T12:16:31.846Z,97090.02
2019-06-08T12:19:01.415Z,97094.48
2019-06-08T12:21:31.207Z,97092.25
2019-06-08T12:24:00.927Z,97087.84
2019-06-08T12:26:30.693Z,97089.14
2019-06-08T12:29:19.897Z,97091.50
2019-06-08T12:31:49.526Z,97091.41
2019-06-08T12:34:19.197Z,97098.98
2019-06-08T12:36:48.827Z,97099.75
2019-06-08T12:39:20.998Z,97103.30
2019-06-08T12:41:49.870Z,97103.45
2019-06-08T12:44:22.033Z,97108.23
2019-06-08T12:46:50.883Z,97109.70
2019-06-08T12:49:20.583Z,97113.08
2019-06-08T12:51:51.751Z,97113.22
2019-06-08T12:54:21.831Z,97116.17
2019-06-08T12:56:51.434Z,97110.55
2019-06-08T12:59:23.004Z,97116.65
2019-06-08T13:01:52.515Z,97114.02
2019-06-08T13:04:23.807Z,97118.09
2019-06-08T13:06:53.660Z,97117.30
2019-06-08T13:09:23.257Z,97123.52
2019-06-08T13:11:56.198Z,97125.26
2019-06-08T13:14:24.203Z,97118.97
2019-06-08T13:16:53.872Z,97131.81
2019-06-08T13:19:23.498Z,97130.50
2019-06-08T13:21:53.096Z,97124.58
2019-06-08T13:24:22.815Z,97131.73
2019-06-08T13:26:52.431Z,97131.08
2019-06-08T13:29:22.317Z,97133.23
2019-06-08T13:31:52.106Z,97138.27
2019-06-08T13:34:24.097Z,97119.40
2019-06-08T13:36:53.088Z,97118.42
2019-06-08T13:39:23.256Z,97127.94
2019-06-08T13:41:53.069Z,97126.87
2019-06-08T13:44:22.697Z,97122.10
2019-06-08T13:46:52.332Z,97120.88
2019-06-08T13:49:26.695Z,97121.93
2019-06-08T13:51:53.281Z,97118.75
2019-06-08T13:54:24.300Z,97125.73
2019-06-08T13:56:54.036Z,97123.05
2019-06-08T13:59:27.350Z,97121.19
2019-06-08T14:01:55.152Z,97133.86
2019-06-08T14:04:25.238Z,97136.72
2019-06-08T14:06:54.975Z,97139.87
2019-06-08T14:09:25.039Z,97143.93
2019-06-08T14:11:54.816Z,97139.73
2019-06-08T14:14:25.623Z,97141.02
2019-06-08T14:16:58.433Z,97143.47
2019-06-08T14:19:31.074Z,97137.08
2019-06-08T14:21:58.408Z,97136.99
2019-06-08T14:24:34.332Z,97139.90
2019-06-08T14:26:59.385Z,97143.64
2019-06-08T14:29:30.439Z,97149.09
2019-06-08T14:32:00.238Z,97146.70
2019-06-08T14:34:31.225Z,97144.25
2019-06-08T14:37:00.948Z,97146.43
2019-06-08T14:39:31.783Z,97154.92
2019-06-08T14:42:01.650Z,97148.77
2019-06-08T14:44:32.135Z,97147.57
2019-06-08T14:47:04.311Z,97146.62
2019-06-08T14:49:35.186Z,97144.48
2019-06-08T14:52:04.973Z,97145.45
2019-06-08T14:54:35.348Z,97144.27
2019-06-08T14:57:05.158Z,97153.28
2019-06-08T14:59:34.775Z,97155.03
2019-06-08T15:02:04.579Z,97160.69
2019-06-08T15:04:36.951Z,97154.08
2019-06-08T15:07:09.279Z,97156.69
2019-06-08T15:09:37.603Z,97156.13
2019-06-08T15:12:09.387Z,97165.94
2019-06-08T15:14:39.126Z,97168.11
2019-06-08T15:17:08.779Z,97164.88
2019-06-08T15:19:38.494Z,97172.85
2019-06-08T15:22:11.169Z,97175.98
2019-06-08T15:24:39.756Z,97179.83
2019-06-08T15:27:09.444Z,97176.84
2019-06-08T15:29:39.072Z,97184.53
2019-06-08T15:32:08.865Z,97191.00
2019-06-08T15:34:38.546Z,97188.59
2019-06-08T15:37:09.238Z,97192.24
2019-06-08T15:39:39.125Z,97194.70
2019-06-08T15:42:08.719Z,97202.65
2019-06-08T15:44:38.523Z,97199.28
2019-06-08T15:47:08.408Z,97205.81
2019-06-08T15:49:39.149Z,97201.16
2019-06-08T15:52:09.310Z,97206.47
2019-06-08T15:54:41.026Z,97199.02
2019-06-08T15:57:10.265Z,97198.87
2019-06-08T15:59:41.803Z,97202.80
2019-06-08T16:02:11.282Z,97209.16
2019-06-08T16:04:40.881Z,97205.11
2019-06-08T16:07:10.744Z,97208.40
2019-06-08T16:09:40.396Z,97215.00
2019-06-08T16:12:09.999Z,97216.06
2019-06-08T16:14:41.503Z,97220.11
2019-06-08T16:17:11.018Z,97220.45
2019-06-08T16:19:40.665Z,97229.74
2019-06-08T16:22:10.332Z,97235.77
2019-06-08T16:24:39.949Z,97237.98
2019-06-08T16:27:09.711Z,97244.00
2019-06-08T16:29:39.372Z,97252.48
2019-06-08T16:32:09.077Z,97251.97
2019-06-08T16:34:39.697Z,97255.26
2019-06-08T16:37:09.627Z,97261.53
2019-06-08T16:39:39.234Z,97257.74
2019-06-08T16:42:08.829Z,97261.81
2019-06-08T16:44:38.670Z,97265.95
2019-06-08T16:47:08.652Z,97271.12
2019-06-08T16:49:39.568Z,97269.48
2019-06-08T16:52:09.311Z,97277.95
2019-06-08T16:54:39.080Z,97283.43
2019-06-08T16:57:10.747Z,97288.06
2019-06-08T16:59:40.215Z,97285.32
2019-06-08T17:02:10.467Z,97288.28
2019-06-08T17:04:40.067Z,97286.93
2019-06-08T17:07:09.696Z,97289.93
2019-06-08T17:09:40.046Z,97292.95
2019-06-08T17:12:09.811Z,97294.82
2019-06-08T17:14:40.664Z,97295.84
2019-06-08T17:17:10.462Z,97297.73
2019-06-08T17:19:40.360Z,97301.04
2019-06-08T17:22:10.084Z,97294.13
2019-06-08T17:24:40.772Z,97300.70
2019-06-08T17:27:26.013Z,97296.81
2019-06-08T17:29:42.000Z,97296.51
2019-06-08T17:32:11.727Z,97297.59
2019-06-08T17:34:42.464Z,97295.94
2019-06-08T17:37:12.250Z,97289.91
2019-06-08T17:39:42.576Z,97300.80
2019-06-08T17:42:12.421Z,97302.11
2019-06-08T17:44:42.606Z,97304.08
2019-06-08T17:47:12.429Z,97306.30
2019-06-08T17:49:43.220Z,97311.75
2019-06-08T17:52:13.083Z,97311.48
2019-06-08T17:54:43.319Z,97310.89
2019-06-08T17:57:13.085Z,97319.34
2019-06-08T17:59:42.850Z,97313.56
2019-06-08T18:02:20.856Z,97327.23
2019-06-08T18:04:44.472Z,97324.67
2019-06-08T18:07:14.422Z,97332.02
2019-06-08T18:09:45.177Z,97329.11
2019-06-08T18:12:14.843Z,97328.53
2019-06-08T18:14:45.162Z,97331.22
2019-06-08T18:17:17.809Z,97326.04
2019-06-08T18:19:49.725Z,97330.09
2019-06-08T18:22:18.846Z,97330.03
2019-06-08T18:24:48.477Z,97334.47
2019-06-08T18:27:18.344Z,97339.89
2019-06-08T18:29:48.678Z,97337.77
2019-06-08T18:32:18.690Z,97345.88
2019-06-08T18:34:48.334Z,97345.04
2019-06-08T18:37:18.598Z,97349.88
2019-06-08T18:39:49.388Z,97351.57
2019-06-08T18:42:21.016Z,97354.20
2019-06-08T18:44:50.614Z,97364.44
2019-06-08T18:47:20.307Z,97360.78
2019-06-08T18:49:49.939Z,97364.25
2019-06-08T18:52:19.625Z,97363.19
2019-06-08T18:54:49.767Z,97367.67
2019-06-08T18:57:19.536Z,97381.76
2019-06-08T18:59:52.921Z,97378.67
2019-06-08T19:02:20.639Z,97380.81
2019-06-08T19:04:50.347Z,97384.87
2019-06-08T19:07:20.119Z,97394.35
2019-06-08T19:09:49.938Z,97398.62
2019-06-08T19:12:19.897Z,97403.67
2019-06-08T19:14:52.162Z,97407.73
2019-06-08T19:17:21.523Z,97408.81
2019-06-08T19:19:52.244Z,97412.55
2019-06-08T19:22:22.371Z,97413.50
2019-06-08T19:24:52.022Z,97415.17
2019-06-08T19:27:21.726Z,97418.91
2019-06-08T19:29:51.736Z,97425.96
2019-06-08T19:32:21.631Z,97421.77
2019-06-08T19:34:54.427Z,97429.29
2019-06-08T19:37:22.739Z,97437.02
2019-06-08T19:39:52.366Z,97441.78
2019-06-08T19:42:35.867Z,97436.45
2019-06-08T19:45:01.172Z,97435.02
2019-06-08T19:47:27.068Z,97449.20
2019-06-08T19:49:57.743Z,97450.06
2019-06-08T19:52:27.331Z,97453.50
2019-06-08T19:54:58.085Z,97452.25
2019-06-08T19:57:28.356Z,97457.12
2019-06-08T20:00:00.389Z,97456.61
2019-06-08T20:02:29.354Z,97451.17
2019-06-08T20:04:58.981Z,97455.06
2019-06-08T20:07:28.575Z,97454.66
2019-06-08T20:09:58.192Z,97455.11
2019-06-08T20:12:28.258Z,97461.12
2019-06-08T20:14:57.923Z,97455.70
2019-06-08T20:17:28.442Z,97463.55
2019-06-08T20:19:58.471Z,97466.65
2019-06-08T20:22:28.224Z,97472.31
2019-06-08T20:24:57.865Z,97475.55
2019-06-08T20:27:27.741Z,97473.61
2019-06-08T20:29:58.211Z,97474.19
2019-06-08T20:32:29.367Z,97470.72
2019-06-08T20:34:59.058Z,97483.73
2019-06-08T20:37:30.275Z,97484.70
2019-06-08T20:40:10.260Z,97482.53
2019-06-08T20:42:31.280Z,97485.98
2019-06-08T20:45:00.900Z,97487.91
2019-06-08T20:47:30.495Z,97486.13
2019-06-08T20:50:00.128Z,97485.87
2019-06-08T20:52:29.725Z,97485.22
2019-06-08T20:54:59.343Z,97483.02
2019-06-08T20:57:29.117Z,97487.73
2019-06-08T20:59:58.752Z,97488.20
2019-06-08T21:02:28.654Z,97484.14
2019-06-08T21:04:59.399Z,97478.92
2019-06-08T21:07:30.642Z,97489.09
2019-06-08T21:10:01.728Z,97489.28
2019-06-08T21:12:34.526Z,97490.48
2019-06-08T21:15:07.090Z,97491.42
2019-06-08T21:17:38.386Z,97505.09
2019-06-08T21:20:09.015Z,97504.35
2019-06-08T21:22:38.636Z,97502.88
2019-06-08T21:25:08.899Z,97506.81
2019-06-08T21:27:39.621Z,97510.02
2019-06-08T21:30:20.588Z,97517.19
2019-06-08T21:32:40.928Z,97517.11
2019-06-08T21:35:10.595Z,97521.68
2019-06-08T21:37:40.286Z,97516.95
2019-06-08T21:40:10.026Z,97520.84
2019-06-08T21:42:39.712Z,97519.76
2019-06-08T21:45:12.570Z,97520.59
2019-06-08T21:47:42.167Z,97517.80
2019-06-08T21:50:12.299Z,97521.19
2019-06-08T21:52:41.928Z,97524.59
2019-06-08T21:55:11.963Z,97521.86
2019-06-08T21:57:41.597Z,97526.28
2019-06-08T22:00:34.727Z,97534.52
2019-06-08T22:02:44.169Z,97532.77
2019-06-08T22:05:14.127Z,97536.05
2019-06-08T22:07:47.183Z,97534.63
2019-06-08T22:10:17.943Z,97538.23
2019-06-08T22:12:48.575Z,97543.30
2019-06-08T22:15:18.569Z,97540.55
2019-06-08T22:17:48.160Z,97544.82
2019-06-08T22:20:18.781Z,97545.45
2019-06-08T22:22:48.410Z,97542.76
2019-06-08T22:25:18.130Z,97538.76
2019-06-08T22:27:47.722Z,97538.11
2019-06-08T22:30:32.416Z,97538.95
2019-06-08T22:32:49.607Z,97547.92
2019-06-08T22:35:19.199Z,97548.55
2019-06-08T22:37:48.808Z,97543.68
2019-06-08T22:40:18.740Z,97551.92
2019-06-08T22:42:49.872Z,97554.76
2019-06-08T22:45:19.494Z,97550.41
2019-06-08T22:47:49.114Z,97550.31
2019-06-08T22:50:19.146Z,97555.30
2019-06-08T22:52:48.941Z,97558.56
2019-06-08T22:55:18.775Z,97556.97
2019-06-08T22:57:48.449Z,97553.36
2019-06-08T23:00:24.612Z,97552.25
2019-06-08T23:02:52.125Z,97557.69
2019-06-08T23:05:23.224Z,97557.11
2019-06-08T23:07:54.748Z,97559.67
2019-06-08T23:10:24.167Z,97553.55
2019-06-08T23:12:54.343Z,97566.94
2019-06-08T23:15:24.036Z,97563.36
2019-06-08T23:17:54.929Z,97562.19
2019-06-08T23:20:24.982Z,97565.09
2019-06-08T23:22:55.653Z,97571.88
2019-06-08T23:25:27.944Z,97566.91
2019-06-08T23:27:58.180Z,97564.50
2019-06-08T23:30:28.019Z,97557.69
2019-06-08T23:33:01.079Z,97554.98
2019-06-08T23:35:41.951Z,97557.86
2019-06-08T23:38:00.856Z,97561.41
2019-06-08T23:40:30.614Z,97558.28
2019-06-08T23:43:01.592Z,97560.41
2019-06-08T23:45:33.207Z,97556.77
2019-06-08T23:48:04.599Z,97564.00
2019-06-08T23:50:37.933Z,97555.42
2019-06-08T23:53:10.572Z,97562.70
2019-06-08T23:55:40.651Z,97559.12
2019-06-08T23:58:11.353Z,97559.22
